createdAt,value
2022-08-31T00:00:21.584Z,80.60
2022-08-31T00:03:39.803Z,80.87
2022-08-31T00:06:17.839Z,81.04
2022-08-31T00:09:14.929Z,80.88
2022-08-31T00:14:28.879Z,81.36
2022-08-31T00:17:13.230Z,81.11
2022-08-31T00:19:59.222Z,81.03
2022-08-31T00:22:51.667Z,81.17
2022-08-31T00:25:37.045Z,81.28
2022-08-31T00:28:30.872Z,81.55
2022-08-31T00:31:12.266Z,81.45
2022-08-31T00:34:11.931Z,81.34
2022-08-31T00:37:01.556Z,81.33
2022-08-31T00:39:31.611Z,81.45
2022-08-31T00:42:13.086Z,81.32
2022-08-31T00:44:43.097Z,81.52
2022-08-31T00:47:29.076Z,81.24
2022-08-31T00:50:16.876Z,81.27
2022-08-31T00:53:02.203Z,81.09
2022-08-31T00:55:57.561Z,81.19
2022-08-31T00:58:34.191Z,81.35
2022-08-31T01:01:30.694Z,81.38
2022-08-31T01:04:22.265Z,81.07
2022-08-31T01:06:59.034Z,81.28
2022-08-31T01:09:40.009Z,80.93
2022-08-31T01:13:02.545Z,81.02
2022-08-31T01:15:39.670Z,80.97
2022-08-31T01:18:18.097Z,80.97
2022-08-31T01:21:32.167Z,81.01
2022-08-31T01:24:09.585Z,81.02
2022-08-31T01:26:53.749Z,81.30
2022-08-31T01:29:41.458Z,81.35
2022-08-31T01:32:21.098Z,81.00
2022-08-31T01:34:58.697Z,81.32
2022-08-31T01:37:31.897Z,81.22
2022-08-31T01:40:17.015Z,81.17
2022-08-31T01:42:56.197Z,81.51
2022-08-31T01:45:59.217Z,81.39
2022-08-31T01:48:48.599Z,81.63
2022-08-31T01:51:25.956Z,81.99
2022-08-31T01:53:57.979Z,82.15
2022-08-31T01:56:45.854Z,82.57
2022-08-31T01:59:34.707Z,82.44
2022-08-31T02:02:09.730Z,82.58
2022-08-31T02:07:50.213Z,82.68
2022-08-31T02:10:23.508Z,82.66
2022-08-31T02:12:59.053Z,82.72
2022-08-31T02:16:02.720Z,83.06
2022-08-31T02:18:37.571Z,82.97
2022-08-31T02:21:27.171Z,82.96
2022-08-31T02:24:02.200Z,83.17
2022-08-31T02:26:32.834Z,83.27
2022-08-31T02:29:26.302Z,83.10
2022-08-31T02:32:19.985Z,83.75
2022-08-31T02:35:16.719Z,84.17
2022-08-31T02:38:00.156Z,84.48
2022-08-31T02:40:43.831Z,84.64
2022-08-31T02:43:24.894Z,84.83
2022-08-31T02:46:24.803Z,85.12
2022-08-31T02:49:08.809Z,85.13
2022-08-31T02:51:50.819Z,85.20
2022-08-31T02:54:28.813Z,85.35
2022-08-31T02:57:32.861Z,85.21
2022-08-31T03:00:10.403Z,85.31
2022-08-31T03:03:01.696Z,85.62
2022-08-31T03:05:41.177Z,85.84
2022-08-31T03:08:27.571Z,86.01
2022-08-31T03:11:09.372Z,86.04
2022-08-31T03:13:46.041Z,86.01
2022-08-31T03:16:15.926Z,85.99
2022-08-31T03:19:21.315Z,86.14
2022-08-31T03:22:04.318Z,86.10
2022-08-31T03:24:53.289Z,86.36
2022-08-31T03:27:31.294Z,86.37
2022-08-31T03:30:04.989Z,86.50
2022-08-31T03:35:37.725Z,86.32
2022-08-31T03:38:20.335Z,86.15
2022-08-31T03:41:01.475Z,86.15
2022-08-31T03:43:40.094Z,85.93
2022-08-31T03:46:18.446Z,85.63
2022-08-31T03:49:01.219Z,85.46
2022-08-31T03:51:41.783Z,85.10
2022-08-31T03:54:20.741Z,84.85
2022-08-31T03:57:01.609Z,84.78
2022-08-31T04:00:01.090Z,84.61
2022-08-31T04:02:38.039Z,84.49
2022-08-31T04:05:28.087Z,84.18
2022-08-31T04:08:14.764Z,83.98
2022-08-31T04:10:53.558Z,83.64
2022-08-31T04:13:21.174Z,83.50
2022-08-31T04:16:01.569Z,83.54
2022-08-31T04:18:49.973Z,83.54
2022-08-31T04:21:24.508Z,83.03
2022-08-31T04:24:04.119Z,82.97
2022-08-31T04:26:54.435Z,82.63
2022-08-31T04:29:34.161Z,82.45
2022-08-31T04:32:46.277Z,81.95
2022-08-31T04:35:29.618Z,81.65
2022-08-31T04:38:55.404Z,81.52
2022-08-31T04:41:41.809Z,81.15
2022-08-31T04:44:11.110Z,81.07
2022-08-31T04:46:41.772Z,80.64
2022-08-31T04:49:30.184Z,80.52
2022-08-31T04:52:16.175Z,80.62
2022-08-31T04:54:53.881Z,80.52
2022-08-31T04:57:35.767Z,80.25
2022-08-31T05:00:12.958Z,80.16
2022-08-31T05:03:08.265Z,80.42
2022-08-31T05:06:00.517Z,80.02
2022-08-31T05:09:05.188Z,79.85
2022-08-31T05:11:34.729Z,79.51
2022-08-31T05:14:18.477Z,79.83
2022-08-31T05:17:20.133Z,79.73
2022-08-31T05:20:06.426Z,79.28
2022-08-31T05:22:40.647Z,79.09
2022-08-31T05:25:33.493Z,78.60
2022-08-31T05:31:05.211Z,76.65
2022-08-31T05:33:57.512Z,77.28
2022-08-31T05:36:38.957Z,77.17
2022-08-31T05:39:26.903Z,77.68
2022-08-31T05:45:06.524Z,77.36
2022-08-31T05:47:56.515Z,77.55
2022-08-31T05:50:50.383Z,77.37
2022-08-31T05:53:47.306Z,76.61
2022-08-31T05:56:37.406Z,75.23
2022-08-31T05:59:13.335Z,75.09
2022-08-31T06:02:05.664Z,75.43
2022-08-31T06:04:54.698Z,74.75
2022-08-31T06:07:32.753Z,74.99
2022-08-31T06:10:14.193Z,75.37
2022-08-31T06:13:20.670Z,74.36
2022-08-31T06:16:29.898Z,72.94
2022-08-31T06:19:11.855Z,73.84
2022-08-31T06:22:28.564Z,73.58
2022-08-31T06:25:24.178Z,73.31
2022-08-31T06:28:15.099Z,73.66
2022-08-31T06:31:03.461Z,73.52
2022-08-31T06:33:45.089Z,73.84
2022-08-31T06:36:49.915Z,74.22
2022-08-31T06:39:45.247Z,73.67
2022-08-31T06:42:26.979Z,73.15
2022-08-31T06:45:22.149Z,72.86
2022-08-31T06:48:01.478Z,72.89
2022-08-31T06:50:43.068Z,72.05
2022-08-31T06:53:34.085Z,71.02
2022-08-31T06:56:37.521Z,70.58
2022-08-31T06:59:40.021Z,70.27
2022-08-31T07:02:27.530Z,69.65
2022-08-31T07:05:11.517Z,69.07
2022-08-31T07:07:56.401Z,70.05
2022-08-31T07:10:30.009Z,70.25
2022-08-31T07:13:02.053Z,69.10
2022-08-31T07:15:44.481Z,69.21
2022-08-31T07:18:16.128Z,68.67
2022-08-31T07:21:22.653Z,68.49
2022-08-31T07:24:07.831Z,67.86
2022-08-31T07:27:06.590Z,66.52
2022-08-31T07:29:44.457Z,66.95
2022-08-31T07:32:18.368Z,65.94
2022-08-31T07:35:01.297Z,66.54
2022-08-31T07:38:06.479Z,64.46
2022-08-31T07:41:11.672Z,63.48
2022-08-31T07:44:00.692Z,64.11
2022-08-31T07:46:48.423Z,64.10
2022-08-31T07:49:37.328Z,63.10
2022-08-31T07:52:23.628Z,63.25
2022-08-31T07:55:14.194Z,62.60
2022-08-31T07:57:54.791Z,62.55
2022-08-31T08:00:45.595Z,62.80
2022-08-31T08:03:43.349Z,61.83
2022-08-31T08:06:18.905Z,61.82
2022-08-31T08:09:23.924Z,60.85
2022-08-31T08:12:10.029Z,60.51
2022-08-31T08:15:03.276Z,60.07
2022-08-31T08:17:38.470Z,59.73
2022-08-31T08:20:37.386Z,59.08
2022-08-31T08:23:14.894Z,58.40
2022-08-31T08:25:52.155Z,58.59
2022-08-31T08:28:39.252Z,58.75
2022-08-31T08:31:22.805Z,56.18
2022-08-31T08:34:19.808Z,56.77
2022-08-31T08:37:08.142Z,55.15
2022-08-31T08:40:02.286Z,56.73
2022-08-31T08:42:40.154Z,56.71
2022-08-31T08:45:27.883Z,55.62
2022-08-31T08:48:16.099Z,55.34
2022-08-31T08:51:03.743Z,55.02
2022-08-31T08:53:52.137Z,55.30
2022-08-31T08:56:34.469Z,53.88
2022-08-31T08:59:30.059Z,52.85
2022-08-31T09:02:20.511Z,50.66
2022-08-31T09:05:13.062Z,52.24
2022-08-31T09:08:18.103Z,52.60
2022-08-31T09:11:18.862Z,52.15
2022-08-31T09:14:19.195Z,50.56
2022-08-31T09:17:34.858Z,48.32
2022-08-31T09:20:18.109Z,46.77
2022-08-31T09:23:08.012Z,47.04
2022-08-31T09:26:07.538Z,47.66
2022-08-31T09:28:54.690Z,47.22
2022-08-31T09:32:16.540Z,46.46
2022-08-31T09:35:06.493Z,45.57
2022-08-31T09:37:46.035Z,45.13
2022-08-31T09:40:38.164Z,46.18
2022-08-31T09:43:35.242Z,47.28
2022-08-31T09:46:29.832Z,47.84
2022-08-31T09:49:20.285Z,48.21
2022-08-31T09:52:01.172Z,48.51
2022-08-31T09:55:10.285Z,46.57
2022-08-31T09:58:35.312Z,45.89
2022-08-31T10:01:49.694Z,44.26
2022-08-31T10:04:29.966Z,42.47
2022-08-31T10:07:11.518Z,42.54
2022-08-31T10:10:39.278Z,41.41
2022-08-31T10:14:08.694Z,38.91
2022-08-31T10:16:55.748Z,38.29
2022-08-31T10:19:34.458Z,36.46
2022-08-31T10:22:29.852Z,37.70
2022-08-31T10:25:31.487Z,37.48
2022-08-31T10:28:31.832Z,37.31
2022-08-31T10:31:48.346Z,37.21
2022-08-31T10:35:06.025Z,35.99
2022-08-31T10:38:14.800Z,36.32
2022-08-31T10:41:07.103Z,35.03
2022-08-31T10:44:31.872Z,34.28
2022-08-31T10:47:24.926Z,33.73
2022-08-31T10:50:18.032Z,34.71
2022-08-31T10:53:13.174Z,34.96
2022-08-31T10:56:02.027Z,32.63
2022-08-31T10:58:46.397Z,34.82
2022-08-31T11:02:17.044Z,35.40
2022-08-31T11:05:52.847Z,34.41
2022-08-31T11:09:17.363Z,35.87
2022-08-31T11:12:14.544Z,36.96
2022-08-31T11:15:08.519Z,36.59
2022-08-31T11:18:05.631Z,35.77
2022-08-31T11:21:11.084Z,34.23
2022-08-31T11:24:34.911Z,36.00
2022-08-31T11:27:27.087Z,35.20
2022-08-31T11:30:02.954Z,35.04
2022-08-31T11:32:45.558Z,35.69
2022-08-31T11:36:11.277Z,36.50
2022-08-31T11:39:15.808Z,36.66
2022-08-31T11:41:50.918Z,37.37
2022-08-31T11:45:14.048Z,37.48
2022-08-31T11:47:46.888Z,38.23
2022-08-31T11:50:42.107Z,38.86
2022-08-31T11:53:32.023Z,39.29
2022-08-31T11:56:15.244Z,36.01
2022-08-31T11:59:34.032Z,34.47
2022-08-31T12:02:45.375Z,34.03
2022-08-31T12:06:05.220Z,34.19
2022-08-31T12:09:02.485Z,33.82
2022-08-31T12:11:49.713Z,34.62
2022-08-31T12:14:49.848Z,35.36
2022-08-31T12:17:51.949Z,36.87
2022-08-31T12:21:03.249Z,37.29
2022-08-31T12:24:05.888Z,37.87
2022-08-31T12:26:52.436Z,38.34
2022-08-31T12:29:32.617Z,38.95
2022-08-31T12:32:46.480Z,39.67
2022-08-31T12:36:13.843Z,40.76
2022-08-31T12:39:35.209Z,41.22
2022-08-31T12:50:49.788Z,38.31
2022-08-31T12:54:08.977Z,36.35
2022-08-31T13:00:40.971Z,34.00
2022-08-31T13:03:59.592Z,33.97
2022-08-31T13:06:42.923Z,36.19
2022-08-31T13:09:54.042Z,37.20
2022-08-31T13:12:39.285Z,38.47
2022-08-31T13:15:42.453Z,38.62
2022-08-31T13:18:51.405Z,35.31
2022-08-31T13:21:35.463Z,33.79
2022-08-31T13:25:07.882Z,32.51
2022-08-31T13:28:00.853Z,31.98
2022-08-31T13:31:12.531Z,31.93
2022-08-31T13:34:28.295Z,31.22
2022-08-31T13:37:34.277Z,31.03
